Time;durP1;ratioP1;P1;durP2;ratioP2;P2;SDS_P1;SDS_P2;PMS_P1;PMS_P2;Temp;Humidity;BMP_temperature;BMP_pressure;BME280_temperature;BME280_humidity;BME280_pressure;Samples;Min_cycle;Max_cycle;Signal;HPM_P1;HPM_P2
2022/04/19 00:00:16;;;;;;;12.00;9.53;;;;;;;7.18;66.14;100322.38;5078500;28;20762;-76
2022/04/19 00:02:44;;;;;;;10.97;9.80;;;;;;;7.16;66.25;100318.00;5079566;28;20554;-75
2022/04/19 00:05:10;;;;;;;12.40;9.60;;;;;;;7.18;66.02;100317.06;5079083;28;20455;-75
2022/04/19 00:07:37;;;;;;;11.40;9.37;;;;;;;7.12;65.81;100308.59;5080219;28;20472;-75
2022/04/19 00:10:04;;;;;;;10.93;9.10;;;;;;;7.07;66.00;100320.53;5084031;28;20459;-75
2022/04/19 00:12:33;;;;;;;14.83;9.63;;;;;;;7.02;65.98;100304.94;5083433;28;20479;-75
2022/04/19 00:15:01;;;;;;;11.77;8.80;;;;;;;6.97;66.60;100315.06;5083729;28;20474;-75
2022/04/19 00:17:28;;;;;;;13.00;9.90;;;;;;;6.93;66.58;100313.63;5082330;28;20475;-76
2022/04/19 00:19:54;;;;;;;11.27;9.10;;;;;;;6.90;66.47;100314.69;5083188;28;21017;-74
2022/04/19 00:22:22;;;;;;;12.50;9.60;;;;;;;6.89;67.05;100315.66;5082664;28;20479;-78
2022/04/19 00:24:49;;;;;;;14.57;9.93;;;;;;;6.81;67.22;100311.88;5093755;28;20507;-78
2022/04/19 00:27:16;;;;;;;12.43;9.43;;;;;;;6.77;67.29;100304.13;5094836;28;20479;-78
2022/04/19 00:29:43;;;;;;;13.27;9.20;;;;;;;6.78;67.16;100303.16;5083208;28;20483;-79
2022/04/19 00:32:11;;;;;;;12.87;10.53;;;;;;;6.72;67.12;100308.94;5081690;28;20475;-77
2022/04/19 00:34:38;;;;;;;11.30;9.10;;;;;;;6.70;67.72;100305.56;5083020;28;20440;-77
2022/04/19 00:37:05;;;;;;;12.77;10.00;;;;;;;6.66;68.16;100308.53;5081934;28;20478;-77
2022/04/19 00:39:32;;;;;;;10.40;8.93;;;;;;;6.57;68.43;100313.56;5082912;28;20452;-78
2022/04/19 00:42:00;;;;;;;11.60;9.57;;;;;;;6.55;68.18;100298.72;5082279;28;21077;-78
2022/04/19 00:44:26;;;;;;;14.30;10.57;;;;;;;6.47;68.48;100295.78;5081878;28;20475;-77
2022/04/19 00:46:54;;;;;;;14.50;10.10;;;;;;;6.43;68.94;100297.81;5081780;28;20924;-77
2022/04/19 00:49:22;;;;;;;16.13;10.90;;;;;;;6.44;69.00;100294.22;5082009;28;20889;-77
2022/04/19 00:51:48;;;;;;;13.90;9.70;;;;;;;6.31;69.37;100296.06;5082183;28;20515;-78
2022/04/19 00:54:17;;;;;;;17.77;11.27;;;;;;;6.31;69.57;100293.41;5082331;28;20547;-78
2022/04/19 00:56:44;;;;;;;13.20;10.97;;;;;;;6.28;69.49;100286.50;5082251;28;20494;-77
2022/04/19 00:59:12;;;;;;;15.13;11.20;;;;;;;6.26;69.45;100292.88;5082969;28;20448;-76
2022/04/19 01:01:38;;;;;;;14.77;11.40;;;;;;;6.22;69.49;100290.44;5081785;28;20508;-76
2022/04/19 01:04:06;;;;;;;16.37;11.00;;;;;;;6.23;69.24;100288.63;5082947;28;20448;-76
2022/04/19 01:06:34;;;;;;;17.10;12.03;;;;;;;6.25;69.42;100281.44;5081670;28;20496;-76
2022/04/19 01:09:01;;;;;;;18.87;12.03;;;;;;;6.20;69.92;100289.72;5083189;28;20815;-76
2022/04/19 01:14:12;;;;;;;14.90;11.80;;;;;;;6.13;70.24;100284.97;5081837;28;20501;-77
2022/04/19 01:16:40;;;;;;;14.40;11.70;;;;;;;6.11;70.40;100293.06;5080928;28;20899;-77
2022/04/19 01:19:09;;;;;;;18.90;12.50;;;;;;;6.14;70.46;100281.34;5081998;28;20443;-78
2022/04/19 01:21:48;;;;;;;16.50;12.10;;;;;;;6.02;70.70;100286.59;5082442;28;20535;-75
2022/04/19 01:24:16;;;;;;;15.20;10.90;;;;;;;6.00;70.92;100288.50;5081969;28;20466;-75
2022/04/19 01:26:42;;;;;;;17.30;12.37;;;;;;;6.03;70.67;100293.59;5081576;28;20476;-75
2022/04/19 01:29:10;;;;;;;12.70;10.17;;;;;;;6.04;72.07;100286.47;5082243;28;20880;-75
2022/04/19 01:31:38;;;;;;;16.20;11.50;;;;;;;6.11;72.41;100287.75;5081519;28;20541;-75
2022/04/19 01:34:04;;;;;;;16.97;13.40;;;;;;;6.04;71.55;100286.47;5082082;28;20452;-75
2022/04/19 01:36:31;;;;;;;19.20;13.07;;;;;;;5.94;71.34;100280.13;5081326;28;20563;-74
2022/04/19 01:38:59;;;;;;;16.17;12.03;;;;;;;5.88;71.55;100285.84;5083775;28;20456;-74
2022/04/19 01:41:27;;;;;;;19.43;11.20;;;;;;;5.79;72.26;100284.69;5083034;28;20479;-73
2022/04/19 01:43:53;;;;;;;12.87;10.43;;;;;;;5.74;72.66;100282.38;5084767;28;20455;-75
2022/04/19 01:46:20;;;;;;;15.17;11.50;;;;;;;5.75;73.03;100284.06;5082055;28;20498;-74
2022/04/19 01:48:47;;;;;;;16.10;11.67;;;;;;;5.73;73.15;100275.38;5081972;28;20448;-74
2022/04/19 01:51:14;;;;;;;16.77;11.73;;;;;;;5.70;73.05;100272.94;5080634;28;20543;-73
2022/04/19 01:53:41;;;;;;;15.07;12.73;;;;;;;5.66;73.23;100276.78;5082495;28;20448;-74
2022/04/19 01:56:09;;;;;;;12.13;10.50;;;;;;;5.58;74.02;100279.94;5080779;28;20463;-75
2022/04/19 01:58:37;;;;;;;15.90;10.60;;;;;;;5.56;74.27;100279.22;5082243;28;20463;-74
2022/04/19 02:01:04;;;;;;;15.33;11.90;;;;;;;5.54;74.16;100282.91;5081294;28;20556;-75
2022/04/19 02:03:30;;;;;;;14.23;10.70;;;;;;;5.57;74.06;100286.22;5080942;28;20502;-74
2022/04/19 02:05:57;;;;;;;14.47;11.87;;;;;;;5.61;73.54;100282.41;5080972;28;20535;-74
2022/04/19 02:08:24;;;;;;;17.10;11.87;;;;;;;5.64;73.13;100284.84;5080995;28;20519;-74
2022/04/19 02:10:50;;;;;;;15.50;11.47;;;;;;;5.63;73.40;100277.81;5080569;28;20506;-74
2022/04/19 02:13:19;;;;;;;15.10;12.30;;;;;;;5.62;73.46;100275.28;5080817;28;20451;-75
2022/04/19 02:15:46;;;;;;;13.63;11.00;;;;;;;5.55;73.55;100269.56;5080617;28;20507;-74
2022/04/19 02:18:13;;;;;;;13.47;11.20;;;;;;;5.55;73.75;100269.56;5080738;28;20454;-75
2022/04/19 02:20:39;;;;;;;16.13;11.97;;;;;;;5.57;73.83;100269.44;5079675;28;21068;-75
2022/04/19 02:23:06;;;;;;;16.50;11.93;;;;;;;5.62;74.08;100267.31;5078176;28;20527;-76
2022/04/19 02:25:33;;;;;;;12.90;10.67;;;;;;;5.71;73.40;100264.03;5079698;28;20475;-76
2022/04/19 02:27:59;;;;;;;17.93;11.23;;;;;;;5.56;73.83;100259.81;5080898;28;20476;-75
2022/04/19 02:30:27;;;;;;;14.93;10.70;;;;;;;5.45;74.22;100258.75;5079051;28;20523;-75
2022/04/19 02:32:55;;;;;;;18.47;12.30;;;;;;;5.37;74.13;100269.06;5080738;28;20468;-76
2022/04/19 02:35:23;;;;;;;16.60;11.10;;;;;;;5.31;73.92;100268.63;5080140;28;20516;-76
2022/04/19 02:37:50;;;;;;;16.60;12.17;;;;;;;5.34;73.85;100266.59;5081342;28;20533;-76
2022/04/19 02:40:18;;;;;;;16.40;12.07;;;;;;;5.38;73.75;100264.59;5080415;28;20561;-74
2022/04/19 02:42:45;;;;;;;20.13;13.30;;;;;;;5.34;73.40;100276.38;5080017;28;20440;-74
2022/04/19 02:45:12;;;;;;;17.87;14.00;;;;;;;5.40;73.49;100271.50;5079504;28;20451;-74
2022/04/19 02:47:41;;;;;;;17.33;14.57;;;;;;;5.42;73.38;100271.38;5079927;28;20551;-74
2022/04/19 02:50:08;;;;;;;16.60;13.30;;;;;;;5.45;73.45;100265.84;5079249;28;20455;-75
2022/04/19 02:52:35;;;;;;;18.40;12.93;;;;;;;5.48;73.59;100268.28;5079969;28;20476;-74
2022/04/19 02:55:02;;;;;;;14.30;11.60;;;;;;;5.51;73.52;100268.09;5080281;28;20444;-75
2022/04/19 02:57:28;;;;;;;16.57;12.20;;;;;;;5.48;72.79;100270.94;5079791;28;20506;-74
2022/04/19 02:59:55;;;;;;;18.20;12.97;;;;;;;5.46;73.22;100275.50;5080094;28;20455;-75
2022/04/19 03:02:22;;;;;;;15.50;12.00;;;;;;;5.44;72.84;100266.81;5078201;28;21043;-75
2022/04/19 03:04:50;;;;;;;15.70;11.67;;;;;;;5.41;72.92;100264.38;5080419;28;20492;-75
2022/04/19 03:07:17;;;;;;;12.87;10.67;;;;;;;5.40;72.83;100260.88;5079897;28;20487;-74
2022/04/19 03:09:43;;;;;;;15.70;11.40;;;;;;;5.41;72.58;100264.38;5080527;28;20436;-75
2022/04/19 03:12:11;;;;;;;17.10;11.90;;;;;;;5.37;72.39;100268.22;5079621;28;20476;-74
2022/04/19 03:14:38;;;;;;;15.93;10.60;;;;;;;5.36;72.39;100263.84;5079814;28;20482;-75
2022/04/19 03:17:05;;;;;;;19.83;11.20;;;;;;;5.36;72.58;100261.19;5078724;28;20483;-75
2022/04/19 03:19:32;;;;;;;16.90;11.23;;;;;;;5.38;72.46;100253.97;5079690;28;20519;-75
2022/04/19 03:22:01;;;;;;;17.63;11.50;;;;;;;5.39;72.39;100266.28;5080225;28;20550;-75
2022/04/19 03:30:09;;;;;;;18.07;11.40;;;;;;;5.35;72.78;100262.16;4997604;28;20452;-75
2022/04/19 03:32:36;;;;;;;16.87;11.87;;;;;;;5.30;72.50;100264.28;5059976;28;20914;-76
2022/04/19 03:35:03;;;;;;;18.93;11.30;;;;;;;5.27;72.87;100266.19;5079590;28;20947;-77
2022/04/19 03:37:31;;;;;;;13.00;10.57;;;;;;;5.23;72.96;100259.41;5079304;28;20472;-75
2022/04/19 03:39:58;;;;;;;15.10;11.03;;;;;;;5.28;72.79;100262.59;5080209;28;20555;-75
2022/04/19 03:42:25;;;;;;;15.53;10.80;;;;;;;5.27;72.52;100252.91;5078688;28;20472;-76
2022/04/19 03:44:52;;;;;;;15.50;11.67;;;;;;;5.20;72.43;100251.66;5079270;28;20452;-75
2022/04/19 03:47:20;;;;;;;15.47;12.17;;;;;;;5.13;72.79;100261.00;5078492;28;20945;-75
2022/04/19 03:49:47;;;;;;;16.67;11.57;;;;;;;5.10;73.05;100250.59;5079252;28;20460;-75
2022/04/19 03:52:14;;;;;;;17.77;12.33;;;;;;;5.07;73.59;100256.97;5078957;28;20537;-76
2022/04/19 03:54:42;;;;;;;15.00;11.23;;;;;;;5.08;73.85;100260.44;5079778;28;20558;-76
2022/04/19 03:57:10;;;;;;;13.43;10.23;;;;;;;5.06;73.73;100263.22;5078664;28;20464;-75
2022/04/19 03:59:39;;;;;;;18.60;12.17;;;;;;;5.07;73.75;100256.97;5080014;28;20448;-76
2022/04/19 04:02:06;;;;;;;15.90;12.50;;;;;;;5.03;73.56;100257.28;5078432;28;21053;-75
2022/04/19 04:04:34;;;;;;;16.30;11.47;;;;;;;5.01;73.35;100252.06;5079376;28;20444;-75
2022/04/19 04:07:01;;;;;;;19.67;13.07;;;;;;;5.02;73.58;100255.59;5078489;28;20569;-75
2022/04/19 04:09:32;;;;;;;14.80;10.60;;;;;;;5.03;73.62;100254.63;5079454;28;20486;-75
2022/04/19 04:12:01;;;;;;;16.37;11.73;;;;;;;5.03;73.59;100251.97;5064874;28;20942;-75
2022/04/19 04:14:28;;;;;;;14.30;10.50;;;;;;;4.97;73.86;100247.94;5079615;28;20539;-75
2022/04/19 04:16:55;;;;;;;15.27;11.33;;;;;;;4.93;73.91;100250.91;5077986;28;20486;-75
2022/04/19 04:19:21;;;;;;;17.77;12.40;;;;;;;4.93;73.83;100251.78;5079172;28;20471;-75
2022/04/19 04:21:48;;;;;;;18.97;12.77;;;;;;;4.88;74.01;100249.41;5079155;28;20508;-75
2022/04/19 04:24:15;;;;;;;16.87;12.30;;;;;;;4.93;73.61;100256.19;5079924;28;20542;-76
2022/04/19 04:26:42;;;;;;;15.53;11.43;;;;;;;4.94;73.48;100258.75;5084940;28;20514;-75
2022/04/19 04:29:10;;;;;;;18.03;11.67;;;;;;;4.98;73.65;100260.25;5083921;28;20478;-75
2022/04/19 04:31:38;;;;;;;19.73;11.47;;;;;;;4.98;73.94;100254.09;5092929;28;20475;-75
2022/04/19 04:34:04;;;;;;;20.63;12.10;;;;;;;4.96;73.94;100253.34;5080057;28;20477;-75
2022/04/19 04:36:31;;;;;;;19.73;12.27;;;;;;;5.02;73.87;100252.94;5078329;28;20498;-76
2022/04/19 04:38:58;;;;;;;15.07;10.80;;;;;;;5.12;73.63;100256.66;5079235;28;20456;-75
2022/04/19 04:41:24;;;;;;;17.80;12.00;;;;;;;5.19;73.33;100260.56;5078727;28;20655;-74
2022/04/19 04:43:51;;;;;;;17.30;11.90;;;;;;;5.31;72.86;100258.03;5081077;28;20478;-75
2022/04/19 04:51:47;;;;;;;18.10;10.80;;;;;;;5.76;71.51;100259.22;5083202;28;21149;-74
2022/04/19 04:54:14;;;;;;;19.10;11.63;;;;;;;5.93;71.18;100259.84;5085219;28;20474;-74
2022/04/19 04:56:40;;;;;;;25.67;12.30;;;;;;;6.22;70.32;100273.69;5085149;28;20646;-74
2022/04/19 04:59:07;;;;;;;20.80;11.53;;;;;;;6.88;68.19;100267.94;5089935;28;20729;-73
2022/04/19 05:01:35;;;;;;;14.47;11.10;;;;;;;8.08;64.44;100258.53;5082928;28;20490;-75
2022/04/19 05:04:02;;;;;;;18.07;10.63;;;;;;;9.30;59.75;100265.28;5081583;28;20982;-75
2022/04/19 05:06:29;;;;;;;13.23;9.30;;;;;;;10.27;55.35;100251.41;5080193;28;20480;-76
2022/04/19 05:08:56;;;;;;;16.73;10.10;;;;;;;10.38;54.52;100263.00;5080939;28;20491;-75
2022/04/19 05:11:22;;;;;;;16.90;10.23;;;;;;;10.84;53.29;100261.47;5081122;28;20472;-76
2022/04/19 05:13:49;;;;;;;13.03;9.17;;;;;;;10.73;53.04;100265.13;5081710;28;20444;-75
2022/04/19 05:16:16;;;;;;;14.00;11.03;;;;;;;10.77;53.02;100258.50;5080240;28;20494;-75
2022/04/19 05:18:44;;;;;;;14.90;11.57;;;;;;;10.48;53.62;100255.84;5079862;28;20443;-75
2022/04/19 05:21:11;;;;;;;13.83;11.30;;;;;;;10.49;53.91;100263.72;5080741;28;20468;-77
2022/04/19 05:23:37;;;;;;;13.00;10.73;;;;;;;10.32;53.88;100264.41;5082751;28;20439;-75
2022/04/19 05:26:04;;;;;;;14.40;10.13;;;;;;;10.64;53.93;100256.13;5081599;28;20467;-75
2022/04/19 05:28:31;;;;;;;13.13;9.97;;;;;;;10.71;52.98;100261.72;5081731;28;20476;-75
2022/04/19 05:30:57;;;;;;;17.77;11.40;;;;;;;10.68;52.58;100262.03;5080721;28;20480;-75
2022/04/19 05:33:24;;;;;;;17.30;10.67;;;;;;;10.27;53.82;100267.44;5079710;28;20440;-75
2022/04/19 05:35:52;;;;;;;11.80;10.50;;;;;;;10.94;52.51;100254.28;5079686;28;20474;-71
2022/04/19 05:38:19;;;;;;;14.60;11.00;;;;;;;11.56;51.24;100267.22;5078301;28;20502;-75
2022/04/19 05:40:46;;;;;;;15.73;11.80;;;;;;;11.93;49.83;100269.06;5079686;28;20464;-71
2022/04/19 05:43:13;;;;;;;18.00;13.03;;;;;;;12.27;48.60;100271.97;5079370;28;20433;-71
2022/04/19 05:45:39;;;;;;;12.77;11.00;;;;;;;11.76;49.69;100271.50;5080335;28;20471;-70
2022/04/19 05:48:07;;;;;;;15.40;11.70;;;;;;;11.67;50.01;100267.88;5089896;28;21128;-73
2022/04/19 05:50:33;;;;;;;14.43;12.90;;;;;;;11.68;49.67;100260.69;5079600;28;20475;-69
2022/04/19 05:53:01;;;;;;;19.83;13.93;;;;;;;12.36;48.11;100268.38;5062572;28;20515;-73
2022/04/19 05:55:28;;;;;;;14.73;13.03;;;;;;;12.37;47.77;100275.41;5060248;28;20472;-73
2022/04/19 05:57:55;;;;;;;13.63;12.07;;;;;;;13.61;45.56;100277.28;5060254;28;20476;-73
2022/04/19 06:00:21;;;;;;;16.07;13.17;;;;;;;12.67;46.23;100269.84;5058846;28;20477;-73
2022/04/19 06:05:32;;;;;;;15.70;11.80;;;;;;;14.57;43.18;100265.31;5061482;28;20486;-74
2022/04/19 06:07:58;;;;;;;17.13;12.80;;;;;;;15.58;40.65;100269.47;5059588;28;20473;-75
2022/04/19 06:10:27;;;;;;;17.47;12.63;;;;;;;15.46;39.69;100270.03;5066863;28;20485;-74
2022/04/19 06:12:53;;;;;;;15.67;11.40;;;;;;;16.79;37.98;100277.31;5060875;28;20441;-75
2022/04/19 06:15:21;;;;;;;12.17;11.00;;;;;;;16.22;38.71;100268.59;5076924;28;20513;-75
2022/04/19 06:17:47;;;;;;;12.30;11.10;;;;;;;17.69;36.16;100269.22;5061576;28;20778;-76
2022/04/19 06:20:15;;;;;;;13.30;11.90;;;;;;;17.76;36.21;100279.28;5077784;28;20451;-73
2022/04/19 06:22:44;;;;;;;12.70;11.03;;;;;;;17.77;35.83;100275.56;5059130;28;20457;-74
2022/04/19 06:25:11;;;;;;;12.20;10.13;;;;;;;18.63;34.61;100279.31;5056990;28;20793;-72
2022/04/19 06:27:39;;;;;;;13.23;11.07;;;;;;;16.05;38.80;100273.22;5060316;28;20476;-73
2022/04/19 06:30:07;;;;;;;13.90;11.90;;;;;;;15.40;39.98;100276.94;5054830;28;20537;-73
2022/04/19 06:32:33;;;;;;;14.57;11.27;;;;;;;15.05;41.65;100281.69;5057041;28;20469;-72
2022/04/19 06:35:00;;;;;;;12.43;11.03;;;;;;;16.10;39.36;100278.09;5060690;28;21001;-72
2022/04/19 06:37:28;;;;;;;13.80;11.20;;;;;;;16.46;38.83;100277.56;5059261;28;20473;-73
2022/04/19 06:39:55;;;;;;;13.37;10.23;;;;;;;16.81;37.67;100278.00;5058529;28;20519;-72
2022/04/19 06:42:23;;;;;;;11.20;10.10;;;;;;;17.22;36.95;100273.09;5049452;28;20485;-72
2022/04/19 06:44:51;;;;;;;15.13;10.57;;;;;;;18.07;35.00;100281.81;5054284;28;20449;-73
2022/04/19 06:47:17;;;;;;;11.43;10.23;;;;;;;17.70;35.56;100279.00;5057510;28;20568;-73
2022/04/19 06:49:44;;;;;;;11.03;9.90;;;;;;;17.95;36.05;100288.72;5054786;28;20974;-73
2022/04/19 06:52:10;;;;;;;12.10;9.80;;;;;;;15.65;39.95;100279.56;5068496;28;21284;-72
2022/04/19 06:54:37;;;;;;;11.10;9.93;;;;;;;14.47;43.27;100284.28;5077863;28;20444;-72
2022/04/19 06:57:05;;;;;;;11.27;10.10;;;;;;;15.79;40.54;100282.41;5080907;28;20497;-72
2022/04/19 06:59:31;;;;;;;12.80;11.37;;;;;;;17.20;37.97;100285.94;5078057;28;20487;-72
2022/04/19 07:02:00;;;;;;;9.40;8.47;;;;;;;17.53;36.68;100280.19;5076002;28;21031;-73
2022/04/19 07:04:27;;;;;;;14.00;9.60;;;;;;;16.53;38.86;100283.91;5079763;28;20926;-72
2022/04/19 07:06:53;;;;;;;11.40;9.23;;;;;;;16.43;38.52;100286.00;5078633;28;20471;-73
2022/04/19 07:09:20;;;;;;;10.20;9.17;;;;;;;18.23;36.29;100286.19;5075946;28;20465;-72
2022/04/19 07:11:47;;;;;;;11.07;9.03;;;;;;;18.77;34.74;100285.72;5073221;28;20499;-72
2022/04/19 07:14:13;;;;;;;9.97;8.77;;;;;;;18.25;35.15;100284.94;5072283;28;20870;-72
2022/04/19 07:16:40;;;;;;;9.83;8.83;;;;;;;18.52;35.18;100282.56;5076375;28;20902;-72
2022/04/19 07:19:08;;;;;;;9.07;8.07;;;;;;;20.05;31.89;100282.94;5078380;28;20840;-72
2022/04/19 07:27:11;;;;;;;9.57;7.50;;;;;;;19.67;32.13;100285.19;5029378;28;20483;-79
2022/04/19 07:29:38;;;;;;;10.13;7.67;;;;;;;20.01;32.11;100281.66;5059631;28;20739;-71
2022/04/19 07:32:05;;;;;;;9.37;7.77;;;;;;;20.35;30.96;100284.50;5057472;28;20472;-74
2022/04/19 07:34:34;;;;;;;10.73;7.70;;;;;;;20.52;31.46;100277.66;5075462;28;21320;-75
2022/04/19 07:37:01;;;;;;;9.10;8.17;;;;;;;20.83;31.35;100290.72;5077547;28;20472;-74
2022/04/19 07:39:28;;;;;;;11.47;8.53;;;;;;;20.55;32.01;100287.28;5077570;28;20518;-75
2022/04/19 07:41:55;;;;;;;9.50;7.10;;;;;;;21.25;30.97;100280.47;5072942;28;20485;-75
2022/04/19 07:44:22;;;;;;;9.23;8.13;;;;;;;21.48;30.38;100292.00;5089846;28;20443;-74
2022/04/19 07:46:50;;;;;;;8.70;7.47;;;;;;;20.94;30.84;100291.16;5098372;28;20475;-75
2022/04/19 07:49:17;;;;;;;10.70;7.03;;;;;;;21.44;29.57;100289.66;5066458;28;21465;-74
2022/04/19 07:51:49;;;;;;;7.80;7.00;;;;;;;21.25;29.99;100290.53;5077150;28;20488;-78
2022/04/19 07:54:16;;;;;;;9.00;7.40;;;;;;;21.05;30.78;100288.63;5077431;28;20479;-73
2022/04/19 07:56:43;;;;;;;7.77;6.03;;;;;;;21.53;28.78;100290.31;5077834;28;20483;-75
2022/04/19 07:59:09;;;;;;;7.13;6.40;;;;;;;20.65;30.30;100287.75;5076639;28;20508;-76
2022/04/19 08:01:36;;;;;;;9.80;7.00;;;;;;;20.42;31.25;100291.63;5077826;28;20490;-78
2022/04/19 08:04:03;;;;;;;6.70;5.90;;;;;;;19.64;31.65;100285.59;5078916;28;20989;-77
2022/04/19 08:06:30;;;;;;;7.27;6.40;;;;;;;20.42;30.73;100278.06;5076519;28;20509;-76
2022/04/19 08:08:58;;;;;;;7.33;6.10;;;;;;;21.50;29.91;100284.47;5078226;28;20439;-76
2022/04/19 08:11:26;;;;;;;7.27;5.60;;;;;;;20.47;30.60;100285.59;5076836;28;20472;-78
2022/04/19 08:13:53;;;;;;;6.73;6.00;;;;;;;21.13;29.55;100282.16;5077610;28;20454;-79
2022/04/19 08:16:20;;;;;;;7.53;5.47;;;;;;;21.02;30.01;100278.19;5077682;28;20479;-79
2022/04/19 08:18:46;;;;;;;4.67;4.13;;;;;;;20.00;30.67;100279.13;5077497;28;20483;-78
2022/04/19 08:21:13;;;;;;;6.60;4.37;;;;;;;20.04;30.50;100283.13;5068373;28;20476;-78
2022/04/19 08:23:40;;;;;;;4.77;4.27;;;;;;;19.58;30.90;100276.38;5079060;28;20756;-78
2022/04/19 08:26:08;;;;;;;6.23;5.07;;;;;;;21.20;28.58;100277.53;5078377;28;20497;-77
2022/04/19 08:28:36;;;;;;;4.43;4.00;;;;;;;20.22;30.18;100269.81;5079182;28;20450;-79
2022/04/19 08:31:02;;;;;;;7.20;3.80;;;;;;;19.88;30.33;100271.59;5081581;28;20510;-78
2022/04/19 08:33:29;;;;;;;5.30;3.53;;;;;;;19.71;29.82;100268.31;5082241;28;20491;-79
2022/04/19 08:35:57;;;;;;;5.57;3.47;;;;;;;19.94;29.92;100269.94;5080972;28;20478;-79
2022/04/19 08:38:23;;;;;;;5.90;3.53;;;;;;;20.05;28.81;100268.50;5082426;28;20840;-74
2022/04/19 08:40:50;;;;;;;3.60;2.77;;;;;;;21.13;27.75;100271.28;5081831;28;20471;-79
2022/04/19 08:43:18;;;;;;;5.27;2.67;;;;;;;20.53;29.00;100265.75;5080518;28;20846;-76
2022/04/19 08:45:46;;;;;;;4.47;2.70;;;;;;;19.90;29.18;100268.66;5095921;28;20474;-79
2022/04/19 08:48:15;;;;;;;4.23;2.57;;;;;;;18.78;30.88;100265.75;5101792;28;20474;-78
2022/04/19 08:50:42;;;;;;;3.53;2.23;;;;;;;20.25;28.69;100268.59;5087911;28;20491;-79
2022/04/19 08:58:39;;;;;;;3.20;2.90;;;;;;;19.63;29.08;100273.06;5084558;28;20482;-77
2022/04/19 09:01:06;;;;;;;9.10;3.07;;;;;;;20.77;27.79;100277.94;5085424;28;20602;-76
2022/04/19 09:03:33;;;;;;;2.77;2.47;;;;;;;21.17;27.00;100279.84;5084347;28;20460;-75
2022/04/19 09:05:59;;;;;;;4.47;3.37;;;;;;;21.33;27.92;100282.13;5080068;28;20483;-78
2022/04/19 09:08:27;;;;;;;3.93;2.93;;;;;;;20.72;28.34;100276.91;5081432;28;20440;-78
2022/04/19 09:11:05;;;;;;;3.00;2.60;;;;;;;20.16;29.17;100286.13;5079014;28;20480;-78
2022/04/19 09:13:32;;;;;;;3.47;2.30;;;;;;;18.33;30.84;100289.44;5079911;28;20503;-78
2022/04/19 09:16:04;;;;;;;3.90;2.50;;;;;;;17.88;32.11;100302.19;5080979;28;20476;-79
2022/04/19 09:18:32;;;;;;;3.30;2.53;;;;;;;19.83;28.72;100282.19;5080678;28;20467;-78
2022/04/19 09:21:00;;;;;;;4.10;2.83;;;;;;;19.73;29.39;100284.41;5078951;28;20538;-78
2022/04/19 09:23:29;;;;;;;3.60;2.80;;;;;;;19.37;30.10;100293.53;5081419;28;20437;-76
2022/04/19 09:25:57;;;;;;;2.87;2.20;;;;;;;20.60;27.89;100292.94;5080346;28;20482;-79
2022/04/19 09:28:24;;;;;;;3.10;2.80;;;;;;;21.18;27.18;100298.69;5080934;28;20434;-76
2022/04/19 09:30:52;;;;;;;5.20;2.67;;;;;;;22.14;25.64;100294.53;5080439;28;20483;-75
2022/04/19 09:33:21;;;;;;;3.27;2.97;;;;;;;20.23;27.77;100284.25;5080065;28;20448;-76
2022/04/19 09:35:50;;;;;;;4.20;2.50;;;;;;;17.88;31.21;100294.91;5079730;28;20471;-76
2022/04/19 09:38:17;;;;;;;2.07;1.77;;;;;;;18.89;28.71;100291.50;5079544;28;20456;-77
2022/04/19 09:40:45;;;;;;;2.27;1.60;;;;;;;19.52;28.35;100293.44;5078644;28;20487;-77
2022/04/19 09:43:14;;;;;;;5.53;1.87;;;;;;;20.01;28.19;100275.38;5079702;28;20448;-80
2022/04/19 09:46:03;;;;;;;10.10;2.43;;;;;;;19.82;27.98;100294.06;5094302;28;20479;-79
2022/04/19 09:48:32;;;;;;;4.23;2.60;;;;;;;19.42;28.25;100291.06;5084996;28;20474;-77
2022/04/19 09:51:02;;;;;;;4.40;2.50;;;;;;;20.16;28.05;100292.38;5079552;28;20536;-79
2022/04/19 09:53:30;;;;;;;2.57;1.67;;;;;;;19.73;27.98;100284.41;5081671;28;20474;-75
2022/04/19 09:55:58;;;;;;;2.93;2.07;;;;;;;18.16;29.60;100291.50;5072184;28;20580;-79
2022/04/19 09:58:26;;;;;;;2.27;1.50;;;;;;;19.31;28.19;100291.63;5061169;28;20433;-78
2022/04/19 10:00:54;;;;;;;3.17;2.67;;;;;;;20.85;27.00;100285.06;5074190;28;20494;-80
2022/04/19 10:08:54;;;;;;;3.70;2.20;;;;;;;20.45;27.39;100293.94;5075128;28;20455;-76
2022/04/19 10:11:20;;;;;;;2.70;1.90;;;;;;;21.63;25.85;100288.00;5073201;28;20760;-74
2022/04/19 10:13:47;;;;;;;2.70;2.10;;;;;;;20.82;27.05;100291.75;5079681;28;20563;-76
2022/04/19 10:16:15;;;;;;;3.50;2.10;;;;;;;19.56;28.98;100281.16;5078563;28;20481;-77
2022/04/19 10:18:43;;;;;;;4.60;2.30;;;;;;;20.46;27.45;100298.31;5078776;28;20444;-76
2022/04/19 10:21:14;;;;;;;2.73;2.13;;;;;;;19.57;28.90;100297.25;5078333;28;20970;-74
2022/04/19 10:23:42;;;;;;;3.30;2.30;;;;;;;19.48;28.85;100301.16;5080396;28;20505;-78
2022/04/19 10:26:20;;;;;;;3.10;2.13;;;;;;;20.42;28.24;100286.19;5097052;28;20508;-77
2022/04/19 10:28:48;;;;;;;4.77;2.40;;;;;;;20.00;28.31;100287.28;5089592;28;20458;-76
2022/04/19 10:31:17;;;;;;;3.17;2.40;;;;;;;20.84;27.47;100277.94;5076976;28;20491;-77
2022/04/19 10:33:45;;;;;;;3.10;2.10;;;;;;;20.95;27.74;100273.78;5077994;28;20456;-78
2022/04/19 10:36:20;;;;;;;3.27;2.80;;;;;;;20.19;27.61;100275.69;5078605;28;20483;-78
2022/04/19 10:38:48;;;;;;;3.10;2.00;;;;;;;19.65;27.23;100277.28;5079780;28;20450;-78
2022/04/19 10:41:48;;;;;;;4.50;1.80;;;;;;;19.57;26.49;100269.28;5077629;28;20486;-79
2022/04/19 10:44:32;;;;;;;1.90;1.20;;;;;;;20.71;25.13;100270.63;5063116;28;20433;-79
2022/04/19 10:47:11;;;;;;;1.90;1.30;;;;;;;20.25;26.40;100280.28;5059143;28;20473;-75
2022/04/19 10:50:05;;;;;;;2.10;0.80;;;;;;;20.23;24.12;100271.50;5063900;28;20497;-79
2022/04/19 10:52:52;;;;;;;2.00;0.87;;;;;;;19.88;24.71;100266.16;5078772;28;20483;-78
2022/04/19 10:55:29;;;;;;;1.40;1.20;;;;;;;20.36;23.99;100267.16;5079100;28;20444;-79
2022/04/19 10:58:09;;;;;;;1.60;0.90;;;;;;;21.13;23.34;100268.56;5080118;28;20546;-78
2022/04/19 11:00:50;;;;;;;2.17;1.10;;;;;;;21.02;22.49;100264.59;5079700;28;20484;-75
2022/04/19 11:03:18;;;;;;;2.20;0.97;;;;;;;19.32;25.03;100266.19;5077489;28;20460;-77
2022/04/19 11:05:46;;;;;;;2.40;1.30;;;;;;;20.05;23.07;100277.50;5079000;28;20472;-76
2022/04/19 11:08:44;;;;;;;3.57;2.00;;;;;;;20.13;23.18;100276.47;5079329;28;21065;-77
2022/04/19 11:11:31;;;;;;;1.60;1.20;;;;;;;20.00;22.81;100285.41;5075861;28;20609;-76
2022/04/19 11:14:26;;;;;;;2.03;1.40;;;;;;;19.51;24.06;100260.09;5071472;28;20512;-75
2022/04/19 11:16:56;;;;;;;4.30;1.33;;;;;;;19.87;23.55;100266.34;5074465;28;20474;-78
2022/04/19 11:19:25;;;;;;;1.50;1.33;;;;;;;19.62;23.58;100250.53;5076931;28;20476;-73
2022/04/19 11:21:56;;;;;;;3.23;1.70;;;;;;;19.91;23.07;100259.47;5080810;28;20468;-72
2022/04/19 11:25:00;;;;;;;3.37;1.47;;;;;;;20.25;23.09;100264.00;5078168;28;20460;-73
2022/04/19 11:28:01;;;;;;;2.20;1.77;;;;;;;20.37;22.41;100258.00;5078095;28;20474;-74
2022/04/19 11:30:29;;;;;;;2.47;1.50;;;;;;;19.30;22.87;100266.38;5077146;28;20471;-73
2022/04/19 11:32:57;;;;;;;3.67;1.43;;;;;;;18.84;22.95;100271.44;5077435;28;20444;-74
2022/04/19 11:35:26;;;;;;;4.60;1.10;;;;;;;19.06;22.14;100251.41;5078604;28;20911;-73
2022/04/19 11:37:52;;;;;;;1.73;0.93;;;;;;;20.23;22.53;100244.38;5078490;28;20484;-76
2022/04/19 11:48:38;;;;;;;2.60;2.20;;;;;;;19.31;24.77;100235.53;5086859;28;20574;-75
2022/04/19 11:51:08;;;;;;;2.43;2.20;;;;;;;19.00;24.32;100236.75;5078192;28;20554;-74
2022/04/19 11:53:35;;;;;;;3.27;1.43;;;;;;;18.57;22.98;100244.88;5079037;28;20447;-74
2022/04/19 11:56:02;;;;;;;2.83;1.20;;;;;;;18.84;22.67;100241.66;5077048;28;20652;-74
2022/04/19 11:58:30;;;;;;;3.47;1.40;;;;;;;19.25;22.82;100246.34;5078547;28;20545;-74
2022/04/19 12:00:59;;;;;;;3.03;1.90;;;;;;;19.84;22.72;100245.03;5077869;28;20508;-74
2022/04/19 12:03:27;;;;;;;3.20;1.70;;;;;;;19.83;21.00;100238.78;5062971;28;20856;-74
2022/04/19 12:05:54;;;;;;;1.90;1.40;;;;;;;19.47;21.50;100238.97;5087420;28;20513;-73